createdAt,value
2023-04-14T00:00:51.370Z,3.52
2023-04-14T00:05:53.983Z,3.61
2023-04-14T00:10:59.365Z,3.43
2023-04-14T00:16:02.133Z,3.32
2023-04-14T00:21:05.024Z,3.18
2023-04-14T00:26:07.784Z,3.10
2023-04-14T00:31:11.381Z,2.95
2023-04-14T00:36:14.053Z,2.94
2023-04-14T00:41:16.662Z,2.50
2023-04-14T00:46:19.419Z,2.57
2023-04-14T00:51:22.718Z,2.59
2023-04-14T00:56:29.731Z,2.46
2023-04-14T01:01:36.717Z,2.41
2023-04-14T01:06:39.278Z,2.39
2023-04-14T01:11:58.335Z,2.31
2023-04-14T01:17:17.909Z,2.32
2023-04-14T01:22:22.733Z,2.00
2023-04-14T01:27:31.449Z,2.01
2023-04-14T01:32:36.560Z,1.88
2023-04-14T01:37:48.764Z,1.86
2023-04-14T01:43:05.390Z,1.84
2023-04-14T01:48:09.246Z,1.53
2023-04-14T01:53:15.352Z,1.64
2023-04-14T01:58:19.721Z,1.59
2023-04-14T02:03:27.037Z,1.57
2023-04-14T02:08:33.063Z,1.19
2023-04-14T02:13:41.546Z,1.16
2023-04-14T02:19:05.739Z,0.81
2023-04-14T02:24:08.940Z,1.09
2023-04-14T02:29:15.598Z,1.20
2023-04-14T02:34:23.718Z,1.09
2023-04-14T02:39:40.428Z,0.86
2023-04-14T02:44:52.093Z,1.06
2023-04-14T02:49:57.108Z,1.10
2023-04-14T02:55:02.475Z,0.95
2023-04-14T03:00:06.322Z,0.75
2023-04-14T03:05:15.835Z,0.98
2023-04-14T03:10:27.507Z,1.21
2023-04-14T03:15:32.522Z,1.20
2023-04-14T03:20:37.251Z,1.05
2023-04-14T03:25:41.824Z,0.92
2023-04-14T03:30:54.354Z,0.94
2023-04-14T03:36:01.633Z,0.87
2023-04-14T03:41:07.569Z,0.60
2023-04-14T03:46:11.233Z,1.00
2023-04-14T03:51:16.512Z,1.43
2023-04-14T03:56:20.200Z,1.43
2023-04-14T04:01:26.042Z,1.15
2023-04-14T04:06:29.702Z,1.18
2023-04-14T04:11:35.065Z,1.28
2023-04-14T04:16:40.877Z,1.09
2023-04-14T04:21:46.079Z,1.07
2023-04-14T04:26:49.197Z,0.82
2023-04-14T04:31:54.523Z,0.93
2023-04-14T04:37:02.353Z,0.90
2023-04-14T04:42:07.432Z,1.07
2023-04-14T04:47:13.121Z,1.35
2023-04-14T04:52:16.010Z,1.70
2023-04-14T04:57:19.737Z,1.39
2023-04-14T05:02:22.572Z,1.50
2023-04-14T05:07:25.528Z,1.45
2023-04-14T05:12:28.041Z,1.73
2023-04-14T05:17:30.626Z,1.67
2023-04-14T05:22:33.514Z,1.64
2023-04-14T05:27:36.068Z,1.73
2023-04-14T05:32:38.751Z,1.98
2023-04-14T05:37:41.463Z,2.08
2023-04-14T05:42:44.150Z,1.98
2023-04-14T05:47:48.105Z,1.98
2023-04-14T05:52:51.584Z,2.19
2023-04-14T05:57:54.282Z,2.27
2023-04-14T06:02:57.075Z,2.39
2023-04-14T06:07:59.941Z,2.52
2023-04-14T06:13:02.899Z,2.54
2023-04-14T06:18:05.713Z,2.49
2023-04-14T06:23:08.422Z,2.81
2023-04-14T06:28:11.115Z,2.83
2023-04-14T06:33:13.761Z,3.19
2023-04-14T06:38:16.518Z,2.89
2023-04-14T06:43:19.942Z,3.16
2023-04-14T06:48:22.606Z,3.48
2023-04-14T06:53:26.132Z,3.35
2023-04-14T06:58:29.353Z,3.07
2023-04-14T07:03:32.518Z,3.35
2023-04-14T07:08:35.548Z,3.64
2023-04-14T07:13:39.144Z,3.53
2023-04-14T07:18:41.744Z,3.63
2023-04-14T07:23:46.976Z,3.69
2023-04-14T07:28:52.154Z,3.85
2023-04-14T07:33:54.802Z,4.01
2023-04-14T07:38:57.633Z,4.19
2023-04-14T07:44:00.525Z,3.96
2023-04-14T07:49:03.738Z,3.78
2023-04-14T07:54:06.553Z,4.23
2023-04-14T07:59:09.450Z,4.77
2023-04-14T08:04:12.569Z,4.83
2023-04-14T08:09:15.876Z,5.01
2023-04-14T08:14:19.110Z,5.04
2023-04-14T08:19:21.710Z,4.97
2023-04-14T08:24:24.357Z,4.46
2023-04-14T08:29:28.080Z,4.60
2023-04-14T08:34:30.688Z,5.20
2023-04-14T08:39:33.350Z,5.25
2023-04-14T08:44:36.080Z,5.10
2023-04-14T08:49:46.790Z,5.15
2023-04-14T08:54:51.312Z,5.57
2023-04-14T08:59:57.523Z,5.54
2023-04-14T09:05:01.121Z,5.42
2023-04-14T09:10:06.143Z,5.08
2023-04-14T09:15:09.642Z,5.41
2023-04-14T09:20:35.348Z,5.89
2023-04-14T09:25:40.512Z,5.89
2023-04-14T09:30:43.483Z,5.21
2023-04-14T09:35:49.298Z,5.96
2023-04-14T09:40:54.290Z,6.02
2023-04-14T09:46:05.111Z,5.67
2023-04-14T09:51:11.822Z,5.58
2023-04-14T09:56:14.472Z,5.92
2023-04-14T10:01:19.367Z,6.28
2023-04-14T10:06:24.399Z,6.69
2023-04-14T10:11:32.989Z,6.74
2023-04-14T10:16:36.059Z,6.43
2023-04-14T10:21:39.473Z,6.82
2023-04-14T10:26:42.976Z,6.85
2023-04-14T10:32:01.939Z,6.89
2023-04-14T10:37:15.372Z,6.38
2023-04-14T10:42:17.990Z,6.76
2023-04-14T10:47:25.301Z,7.07
2023-04-14T10:52:28.032Z,7.04
2023-04-14T10:57:30.924Z,6.77
2023-04-14T11:02:35.221Z,7.00
2023-04-14T11:07:45.301Z,7.17
2023-04-14T11:12:49.533Z,7.47
2023-04-14T11:17:52.505Z,7.58
2023-04-14T11:22:57.925Z,7.65
2023-04-14T11:28:04.089Z,7.47
2023-04-14T11:33:07.419Z,7.90
2023-04-14T11:38:11.464Z,8.01
2023-04-14T11:43:14.129Z,7.43
2023-04-14T11:48:18.082Z,7.60
2023-04-14T11:53:21.351Z,7.69
2023-04-14T11:58:27.800Z,7.68
2023-04-14T12:03:33.265Z,7.74
2023-04-14T12:08:36.348Z,7.91
2023-04-14T12:13:43.197Z,8.01
2023-04-14T12:18:46.280Z,7.95
2023-04-14T12:23:49.254Z,8.29
2023-04-14T12:28:58.309Z,8.31
2023-04-14T12:34:04.224Z,7.76
2023-04-14T12:39:09.088Z,7.96
2023-04-14T12:44:19.834Z,8.33
2023-04-14T12:49:38.927Z,8.16
2023-04-14T12:54:48.922Z,8.07
2023-04-14T12:59:52.279Z,8.26
2023-04-14T13:04:57.101Z,8.23
2023-04-14T13:09:59.750Z,8.05
2023-04-14T13:15:02.580Z,7.92
2023-04-14T13:20:06.223Z,7.66
2023-04-14T13:25:09.238Z,7.93
2023-04-14T13:30:12.441Z,7.75
2023-04-14T13:35:15.580Z,8.12
2023-04-14T13:40:18.224Z,8.09
2023-04-14T13:45:20.860Z,8.35
2023-04-14T13:50:23.581Z,7.97
2023-04-14T13:55:26.295Z,8.09
2023-04-14T14:00:28.931Z,7.73
2023-04-14T14:05:31.782Z,7.75
2023-04-14T14:10:34.417Z,7.83
2023-04-14T14:15:37.154Z,7.93
2023-04-14T14:20:40.569Z,7.86
2023-04-14T14:25:43.454Z,7.78
2023-04-14T14:30:46.100Z,7.69
2023-04-14T14:35:48.702Z,7.63
2023-04-14T14:40:51.575Z,7.57
2023-04-14T14:45:54.802Z,7.42
2023-04-14T14:50:57.510Z,7.34
2023-04-14T14:56:00.399Z,7.46
2023-04-14T15:01:03.164Z,7.23
2023-04-14T15:06:06.224Z,7.18
2023-04-14T15:11:08.931Z,7.02
2023-04-14T15:16:11.743Z,6.86
2023-04-14T15:21:14.440Z,6.96
2023-04-14T15:26:17.244Z,7.04
2023-04-14T15:31:20.890Z,6.63
2023-04-14T15:36:23.537Z,6.61
2023-04-14T15:41:26.792Z,6.54
2023-04-14T15:46:29.591Z,6.45
2023-04-14T15:51:32.183Z,6.47
2023-04-14T15:56:35.727Z,6.29
2023-04-14T16:01:38.509Z,5.92
2023-04-14T16:06:41.237Z,6.01
2023-04-14T16:11:43.884Z,5.99
2023-04-14T16:16:47.245Z,5.93
2023-04-14T16:21:50.032Z,5.82
2023-04-14T16:26:52.595Z,5.74
2023-04-14T16:31:55.662Z,5.62
2023-04-14T16:36:58.760Z,5.58
2023-04-14T16:42:04.303Z,5.51
2023-04-14T16:47:06.855Z,5.46
2023-04-14T16:52:09.779Z,5.29
2023-04-14T16:57:12.432Z,5.29
2023-04-14T17:02:15.150Z,5.20
2023-04-14T17:07:17.943Z,5.03
2023-04-14T17:12:20.800Z,5.08
2023-04-14T17:17:23.519Z,5.02
2023-04-14T17:22:27.622Z,5.00
2023-04-14T17:27:30.299Z,4.92
2023-04-14T17:32:33.832Z,4.88
2023-04-14T17:37:37.234Z,4.81
2023-04-14T17:42:39.994Z,4.75
2023-04-14T17:47:42.805Z,4.62
2023-04-14T17:52:46.697Z,4.55
2023-04-14T17:57:50.414Z,4.51
2023-04-14T18:02:53.039Z,4.52
2023-04-14T18:07:55.825Z,4.43
2023-04-14T18:12:58.463Z,4.33
2023-04-14T18:18:01.860Z,4.22
2023-04-14T18:23:05.254Z,4.17
2023-04-14T18:28:08.117Z,4.08
2023-04-14T18:33:10.670Z,3.96
2023-04-14T18:38:13.874Z,3.71
2023-04-14T18:43:17.407Z,3.84
2023-04-14T18:48:23.242Z,3.79
2023-04-14T18:53:25.921Z,3.70
2023-04-14T18:58:30.544Z,3.56
2023-04-14T19:03:33.148Z,3.42
2023-04-14T19:08:36.195Z,3.45
2023-04-14T19:13:38.794Z,3.45
2023-04-14T19:18:42.034Z,3.33
2023-04-14T19:23:45.893Z,3.33
2023-04-14T19:28:48.711Z,3.34
2023-04-14T19:33:51.480Z,3.32
2023-04-14T19:38:54.103Z,3.25
2023-04-14T19:43:56.839Z,3.18
2023-04-14T19:49:00.893Z,2.99
2023-04-14T19:54:05.571Z,3.02
2023-04-14T19:59:08.351Z,2.99
2023-04-14T20:04:12.197Z,2.81
2023-04-14T20:09:15.753Z,2.86
2023-04-14T20:14:18.462Z,2.81
2023-04-14T20:19:21.180Z,2.68
2023-04-14T20:24:23.912Z,2.56
2023-04-14T20:29:26.693Z,2.40
2023-04-14T20:34:29.562Z,2.59
2023-04-14T20:39:32.192Z,2.53
2023-04-14T20:44:34.771Z,2.44
2023-04-14T20:49:37.523Z,2.35
2023-04-14T20:54:40.239Z,2.40
2023-04-14T20:59:43.075Z,2.30
2023-04-14T21:04:46.611Z,2.24
2023-04-14T21:09:49.253Z,2.06
2023-04-14T21:15:44.577Z,2.03
2023-04-14T21:20:14.902Z,2.17
2023-04-14T21:25:17.652Z,2.18
2023-04-14T21:30:20.383Z,1.98
2023-04-14T21:35:22.965Z,2.01
2023-04-14T21:40:25.723Z,2.05
2023-04-14T21:45:28.518Z,2.01
2023-04-14T21:50:33.020Z,1.74
2023-04-14T21:55:37.064Z,1.85
2023-04-14T22:00:40.981Z,1.89
2023-04-14T22:05:44.081Z,1.89
2023-04-14T22:10:47.443Z,1.78
2023-04-14T22:15:50.304Z,1.79
2023-04-14T22:20:52.942Z,1.74
2023-04-14T22:25:56.360Z,1.69
2023-04-14T22:30:59.367Z,1.67
2023-04-14T22:36:05.605Z,1.63
2023-04-14T22:41:08.411Z,1.61
2023-04-14T22:46:11.263Z,1.48
2023-04-14T22:51:13.963Z,1.29
2023-04-14T22:56:16.716Z,1.19
2023-04-14T23:01:22.756Z,1.31
2023-04-14T23:06:25.899Z,1.30
2023-04-14T23:11:28.478Z,1.14
2023-04-14T23:16:31.749Z,1.11
2023-04-14T23:21:34.784Z,1.15
2023-04-14T23:26:37.408Z,1.07
2023-04-14T23:31:40.140Z,0.98
2023-04-14T23:36:48.678Z,0.97
2023-04-14T23:41:51.333Z,0.94
2023-04-14T23:46:53.982Z,0.62
2023-04-14T23:51:56.981Z,0.77
2023-04-14T23:56:59.567Z,0.71
